Time;durP1;ratioP1;P1;durP2;ratioP2;P2;SDS_P1;SDS_P2;PMS_P1;PMS_P2;Temp;Humidity;BMP_temperature;BMP_pressure;BME280_temperature;BME280_humidity;BME280_pressure;Samples;Min_cycle;Max_cycle;Signal;HPM_P1;HPM_P2
2023/03/07 00:00:13;;;;;;;22.33;20.00;;;;;;;;;;517650;28;1488;-74
2023/03/07 00:00:28;;;;;;;22.45;20.08;;;;;;;;;;518761;28;1330;-74
2023/03/07 00:00:44;;;;;;;22.70;20.23;;;;;;;;;;521546;28;1185;-74
2023/03/07 00:00:59;;;;;;;23.15;20.55;;;;;;;;;;519199;28;1239;-74
2023/03/07 00:01:29;;;;;;;23.48;20.98;;;;;;;;;;518326;28;1212;-74
2023/03/07 00:01:45;;;;;;;22.05;19.85;;;;;;;;;;518599;28;1259;-73
2023/03/07 00:02:00;;;;;;;22.15;19.92;;;;;;;;;;516132;28;1165;-73
2023/03/07 00:02:15;;;;;;;22.70;20.40;;;;;;;;;;517061;28;1204;-73
2023/03/07 00:02:30;;;;;;;22.57;20.27;;;;;;;;;;516838;28;1000;-74
2023/03/07 00:02:50;;;;;;;22.35;20.00;;;;;;;;;;516159;28;1374;-74
2023/03/07 00:03:05;;;;;;;22.60;20.20;;;;;;;;;;517986;28;1496;-74
2023/03/07 00:03:20;;;;;;;22.60;20.27;;;;;;;;;;517645;28;1378;-73
2023/03/07 00:03:35;;;;;;;22.77;20.43;;;;;;;;;;519245;28;1161;-74
2023/03/07 00:03:51;;;;;;;22.55;20.25;;;;;;;;;;516417;28;1153;-74
2023/03/07 00:04:06;;;;;;;22.20;19.90;;;;;;;;;;519162;28;1229;-74
2023/03/07 00:04:22;;;;;;;22.40;20.10;;;;;;;;;;520028;28;1350;-73
2023/03/07 00:04:37;;;;;;;22.87;20.47;;;;;;;;;;518266;28;1237;-74
2023/03/07 00:04:52;;;;;;;22.73;20.33;;;;;;;;;;521456;28;1397;-74
2023/03/07 00:05:08;;;;;;;22.70;20.30;;;;;;;;;;518512;28;1219;-74
2023/03/07 00:05:23;;;;;;;22.23;19.93;;;;;;;;;;519101;28;1332;-75
2023/03/07 00:05:39;;;;;;;21.87;19.67;;;;;;;;;;519208;28;1350;-73
2023/03/07 00:06:06;;;;;;;21.88;19.58;;;;;;;;;;519799;28;1334;-74
2023/03/07 00:06:22;;;;;;;22.45;20.05;;;;;;;;;;518984;28;1950;-74
2023/03/07 00:06:37;;;;;;;21.80;19.52;;;;;;;;;;517770;28;1188;-74
2023/03/07 00:06:54;;;;;;;21.47;19.27;;;;;;;;;;517584;28;1205;-74
2023/03/07 00:07:09;;;;;;;22.92;20.50;;;;;;;;;;518882;28;1353;-73
2023/03/07 00:07:25;;;;;;;22.73;20.33;;;;;;;;;;518652;28;1313;-74
2023/03/07 00:07:40;;;;;;;22.30;19.90;;;;;;;;;;516840;28;1229;-74
2023/03/07 00:07:55;;;;;;;22.38;20.00;;;;;;;;;;518359;28;1298;-74
2023/03/07 00:08:11;;;;;;;22.73;20.40;;;;;;;;;;517730;28;1161;-74
2023/03/07 00:08:26;;;;;;;22.83;20.48;;;;;;;;;;521218;28;1204;-73
2023/03/07 00:08:42;;;;;;;22.20;19.90;;;;;;;;;;521639;28;1209;-74
2023/03/07 00:08:59;;;;;;;22.40;20.07;;;;;;;;;;521441;28;1271;-74
2023/03/07 00:09:15;;;;;;;22.45;20.05;;;;;;;;;;519490;28;1413;-73
2023/03/07 00:09:30;;;;;;;22.07;19.77;;;;;;;;;;521610;28;1200;-73
2023/03/07 00:09:46;;;;;;;22.25;20.05;;;;;;;;;;519438;28;1337;-75
2023/03/07 00:10:02;;;;;;;22.35;20.08;;;;;;;;;;519314;28;1087;-74
2023/03/07 00:10:17;;;;;;;22.13;19.83;;;;;;;;;;518133;28;1232;-74
2023/03/07 00:10:33;;;;;;;22.00;19.70;;;;;;;;;;519272;28;1346;-73
2023/03/07 00:10:48;;;;;;;22.08;19.77;;;;;;;;;;516218;28;1403;-73
2023/03/07 00:11:06;;;;;;;22.30;20.00;;;;;;;;;;519743;28;1206;-74
2023/03/07 00:11:21;;;;;;;21.90;19.70;;;;;;;;;;516358;28;1567;-74
2023/03/07 00:11:36;;;;;;;21.73;19.53;;;;;;;;;;521332;28;1212;-74
2023/03/07 00:11:52;;;;;;;22.37;20.07;;;;;;;;;;520189;28;1236;-74
2023/03/07 00:12:10;;;;;;;21.83;19.52;;;;;;;;;;518526;28;1195;-73
2023/03/07 00:12:26;;;;;;;21.55;19.35;;;;;;;;;;517183;28;1515;-74
2023/03/07 00:12:41;;;;;;;21.83;19.63;;;;;;;;;;517754;28;1600;-73
2023/03/07 00:12:56;;;;;;;21.83;19.60;;;;;;;;;;517680;28;1217;-73
2023/03/07 00:13:12;;;;;;;21.60;19.33;;;;;;;;;;519645;28;1251;-74
2023/03/07 00:13:30;;;;;;;21.63;19.38;;;;;;;;;;516923;28;1294;-74
2023/03/07 00:13:45;;;;;;;22.17;19.88;;;;;;;;;;517171;28;1178;-74
2023/03/07 00:14:04;;;;;;;21.20;19.00;;;;;;;;;;520291;28;1239;-74
2023/03/07 00:14:20;;;;;;;21.20;19.00;;;;;;;;;;520597;28;1217;-76
2023/03/07 00:14:35;;;;;;;21.55;19.35;;;;;;;;;;519620;28;1539;-74
2023/03/07 00:14:50;;;;;;;21.57;19.37;;;;;;;;;;520330;28;1218;-74
2023/03/07 00:15:06;;;;;;;21.95;19.65;;;;;;;;;;522158;28;1126;-74
2023/03/07 00:15:22;;;;;;;21.88;19.65;;;;;;;;;;523044;28;1421;-74
2023/03/07 00:15:39;;;;;;;21.77;19.57;;;;;;;;;;521324;28;1228;-75
2023/03/07 00:15:54;;;;;;;22.15;19.92;;;;;;;;;;521392;28;1216;-74
2023/03/07 00:16:13;;;;;;;21.80;19.63;;;;;;;;;;520694;28;1509;-74
2023/03/07 00:16:28;;;;;;;21.25;19.05;;;;;;;;;;519449;28;1334;-74
2023/03/07 00:16:44;;;;;;;21.27;19.00;;;;;;;;;;517544;28;1207;-74
2023/03/07 00:16:59;;;;;;;21.38;19.10;;;;;;;;;;516678;28;1270;-74
2023/03/07 00:17:15;;;;;;;21.50;19.30;;;;;;;;;;519699;28;1292;-74
2023/03/07 00:17:30;;;;;;;21.42;19.20;;;;;;;;;;519840;28;1184;-74
2023/03/07 00:17:45;;;;;;;22.10;19.80;;;;;;;;;;520131;28;1322;-75
2023/03/07 00:18:00;;;;;;;21.97;19.67;;;;;;;;;;521527;28;1428;-74
2023/03/07 00:18:16;;;;;;;20.70;18.50;;;;;;;;;;518653;28;1341;-75
2023/03/07 00:18:32;;;;;;;20.27;18.17;;;;;;;;;;518778;28;1232;-74
2023/03/07 00:18:48;;;;;;;20.42;18.42;;;;;;;;;;519533;28;1398;-74
2023/03/07 00:19:04;;;;;;;20.90;18.83;;;;;;;;;;517682;28;1289;-74
2023/03/07 00:19:19;;;;;;;21.30;19.20;;;;;;;;;;518534;28;1539;-74
2023/03/07 00:19:34;;;;;;;21.40;19.20;;;;;;;;;;518750;28;1294;-73
2023/03/07 00:19:50;;;;;;;21.20;19.00;;;;;;;;;;521330;28;1176;-73
2023/03/07 00:20:06;;;;;;;21.37;19.17;;;;;;;;;;520214;28;1380;-73
2023/03/07 00:20:22;;;;;;;21.77;19.60;;;;;;;;;;518759;28;1480;-73
2023/03/07 00:20:37;;;;;;;21.60;19.40;;;;;;;;;;519316;28;1489;-73
2023/03/07 00:21:00;;;;;;;21.42;19.23;;;;;;;;;;519373;28;1225;-73
2023/03/07 00:21:18;;;;;;;20.80;18.65;;;;;;;;;;517071;28;1306;-74
2023/03/07 00:21:34;;;;;;;21.33;19.05;;;;;;;;;;515393;28;1522;-73
2023/03/07 00:21:49;;;;;;;21.17;18.97;;;;;;;;;;516632;28;1311;-74
2023/03/07 00:22:04;;;;;;;21.08;18.98;;;;;;;;;;518913;28;1219;-74
2023/03/07 00:22:20;;;;;;;20.93;18.83;;;;;;;;;;521005;28;1275;-74
2023/03/07 00:22:36;;;;;;;20.57;18.50;;;;;;;;;;519034;28;1286;-73
2023/03/07 00:22:51;;;;;;;21.02;18.92;;;;;;;;;;519073;28;1150;-73
2023/03/07 00:23:07;;;;;;;21.50;19.30;;;;;;;;;;519141;28;1314;-74
2023/03/07 00:23:22;;;;;;;21.23;19.13;;;;;;;;;;517116;28;1418;-74
2023/03/07 00:23:40;;;;;;;20.50;18.40;;;;;;;;;;517989;28;1231;-74
2023/03/07 00:23:55;;;;;;;20.90;18.70;;;;;;;;;;516944;28;1190;-75
2023/03/07 00:24:10;;;;;;;21.92;19.65;;;;;;;;;;517757;28;1221;-74
2023/03/07 00:24:26;;;;;;;21.83;19.53;;;;;;;;;;521574;28;1399;-74
2023/03/07 00:24:41;;;;;;;21.50;19.30;;;;;;;;;;520566;28;1360;-74
2023/03/07 00:24:56;;;;;;;20.93;18.83;;;;;;;;;;518655;28;1363;-74
2023/03/07 00:25:13;;;;;;;20.77;18.63;;;;;;;;;;519436;28;1449;-74
2023/03/07 00:25:29;;;;;;;21.27;19.08;;;;;;;;;;519792;28;1161;-74
2023/03/07 00:25:44;;;;;;;21.65;19.45;;;;;;;;;;519700;28;1441;-74
2023/03/07 00:26:03;;;;;;;21.40;19.20;;;;;;;;;;519232;28;1404;-73
2023/03/07 00:26:21;;;;;;;21.33;19.13;;;;;;;;;;520327;28;1999;-73
2023/03/07 00:26:38;;;;;;;21.30;19.10;;;;;;;;;;522363;28;1293;-74
2023/03/07 00:26:53;;;;;;;20.98;18.88;;;;;;;;;;521931;28;1444;-74
2023/03/07 00:27:09;;;;;;;21.00;18.90;;;;;;;;;;521391;28;1250;-75
2023/03/07 00:27:24;;;;;;;21.23;19.05;;;;;;;;;;521553;28;1199;-74
2023/03/07 00:27:40;;;;;;;21.00;18.87;;;;;;;;;;520627;28;1285;-74
2023/03/07 00:27:55;;;;;;;20.77;18.67;;;;;;;;;;521280;28;1406;-74
2023/03/07 00:28:10;;;;;;;20.57;18.47;;;;;;;;;;520889;28;1350;-74
2023/03/07 00:28:26;;;;;;;20.13;18.13;;;;;;;;;;520183;28;1413;-74
2023/03/07 00:28:42;;;;;;;20.25;18.15;;;;;;;;;;521956;28;1491;-74
2023/03/07 00:28:57;;;;;;;20.98;18.80;;;;;;;;;;519568;28;1480;-74
2023/03/07 00:29:12;;;;;;;21.10;18.93;;;;;;;;;;521839;28;1235;-74
2023/03/07 00:29:28;;;;;;;20.67;18.53;;;;;;;;;;522298;28;1310;-74
2023/03/07 00:29:43;;;;;;;20.67;18.53;;;;;;;;;;520445;28;1608;-73
2023/03/07 00:29:59;;;;;;;20.80;18.67;;;;;;;;;;521836;28;1327;-73
2023/03/07 00:30:15;;;;;;;20.77;18.65;;;;;;;;;;521615;28;1273;-74
2023/03/07 00:30:30;;;;;;;20.95;18.77;;;;;;;;;;516782;28;1382;-74
2023/03/07 00:30:45;;;;;;;20.63;18.53;;;;;;;;;;515870;28;1172;-74
2023/03/07 00:31:02;;;;;;;20.60;18.50;;;;;;;;;;517169;28;1318;-74
2023/03/07 00:31:18;;;;;;;21.13;19.02;;;;;;;;;;516192;28;1271;-74
2023/03/07 00:31:34;;;;;;;21.23;19.05;;;;;;;;;;517924;28;1323;-75
2023/03/07 00:31:49;;;;;;;20.83;18.63;;;;;;;;;;519762;28;1209;-74
2023/03/07 00:32:04;;;;;;;20.93;18.73;;;;;;;;;;519230;28;1130;-75
2023/03/07 00:32:20;;;;;;;20.42;18.42;;;;;;;;;;520279;28;1197;-74
2023/03/07 00:32:35;;;;;;;20.33;18.23;;;;;;;;;;520025;28;1320;-75
2023/03/07 00:32:51;;;;;;;20.60;18.50;;;;;;;;;;518592;28;1301;-74
2023/03/07 00:33:06;;;;;;;20.53;18.43;;;;;;;;;;519618;28;1255;-75
2023/03/07 00:33:21;;;;;;;20.73;18.63;;;;;;;;;;518152;28;1427;-74
2023/03/07 00:33:38;;;;;;;20.77;18.58;;;;;;;;;;519053;28;1302;-74
2023/03/07 00:33:53;;;;;;;20.85;18.73;;;;;;;;;;518887;28;1254;-74
2023/03/07 00:34:08;;;;;;;20.73;18.73;;;;;;;;;;520224;28;1426;-74
2023/03/07 00:34:24;;;;;;;20.43;18.43;;;;;;;;;;522046;28;1176;-75
2023/03/07 00:34:39;;;;;;;20.60;18.47;;;;;;;;;;522157;28;1136;-75
2023/03/07 00:34:56;;;;;;;20.42;18.27;;;;;;;;;;520983;28;1357;-74
2023/03/07 00:35:12;;;;;;;20.45;18.35;;;;;;;;;;519814;28;1276;-74
2023/03/07 00:35:27;;;;;;;20.83;18.70;;;;;;;;;;518773;28;1039;-74
2023/03/07 00:35:42;;;;;;;21.40;19.20;;;;;;;;;;518935;28;1222;-74
2023/03/07 00:36:00;;;;;;;21.10;19.00;;;;;;;;;;520165;28;1327;-74
2023/03/07 00:36:18;;;;;;;20.60;18.58;;;;;;;;;;520456;28;1286;-74
2023/03/07 00:36:34;;;;;;;20.77;18.67;;;;;;;;;;520586;28;1337;-74
2023/03/07 00:36:49;;;;;;;20.47;18.37;;;;;;;;;;519134;28;1237;-74
2023/03/07 00:37:04;;;;;;;20.50;18.40;;;;;;;;;;521327;28;1239;-74
2023/03/07 00:37:20;;;;;;;20.50;18.50;;;;;;;;;;519870;28;1344;-74
2023/03/07 00:37:35;;;;;;;20.65;18.58;;;;;;;;;;519536;28;1564;-74
2023/03/07 00:37:50;;;;;;;20.70;18.60;;;;;;;;;;516041;28;1327;-74
2023/03/07 00:38:06;;;;;;;20.43;18.33;;;;;;;;;;518402;28;1189;-74
2023/03/07 00:38:21;;;;;;;20.23;18.15;;;;;;;;;;519734;28;1154;-75
2023/03/07 00:38:37;;;;;;;20.50;18.40;;;;;;;;;;518193;28;1191;-75
2023/03/07 00:38:53;;;;;;;20.55;18.45;;;;;;;;;;519874;28;1197;-75
2023/03/07 00:39:08;;;;;;;20.20;18.20;;;;;;;;;;520209;28;1574;-74
2023/03/07 00:39:23;;;;;;;20.27;18.17;;;;;;;;;;521608;28;1223;-74
2023/03/07 00:39:39;;;;;;;20.10;18.10;;;;;;;;;;520333;28;1534;-74
2023/03/07 00:39:54;;;;;;;20.00;18.00;;;;;;;;;;516724;28;1296;-74
2023/03/07 00:40:10;;;;;;;19.93;17.93;;;;;;;;;;519360;28;1146;-74
2023/03/07 00:40:25;;;;;;;20.20;18.15;;;;;;;;;;518599;28;1370;-75
2023/03/07 00:40:41;;;;;;;20.03;18.00;;;;;;;;;;519551;28;1170;-74
2023/03/07 00:41:10;;;;;;;19.58;17.58;;;;;;;;;;519263;28;1305;-74
2023/03/07 00:41:27;;;;;;;20.10;18.00;;;;;;;;;;520853;28;1313;-74
2023/03/07 00:41:42;;;;;;;20.58;18.48;;;;;;;;;;521505;28;1210;-75
2023/03/07 00:41:58;;;;;;;20.60;18.50;;;;;;;;;;520779;28;1319;-74
2023/03/07 00:42:13;;;;;;;20.77;18.65;;;;;;;;;;521717;28;1263;-75
2023/03/07 00:42:29;;;;;;;20.80;18.70;;;;;;;;;;518416;28;1313;-74
2023/03/07 00:42:44;;;;;;;20.20;18.20;;;;;;;;;;517209;28;1275;-74
2023/03/07 00:42:59;;;;;;;20.60;18.50;;;;;;;;;;515044;28;1434;-75
2023/03/07 00:43:15;;;;;;;20.80;18.70;;;;;;;;;;517405;28;1235;-75
2023/03/07 00:43:31;;;;;;;20.43;18.43;;;;;;;;;;518322;28;1402;-75
2023/03/07 00:43:47;;;;;;;20.30;18.30;;;;;;;;;;519050;28;1267;-74
2023/03/07 00:44:03;;;;;;;20.02;18.02;;;;;;;;;;518037;28;1496;-74
2023/03/07 00:44:18;;;;;;;19.80;17.80;;;;;;;;;;517880;28;1206;-74
2023/03/07 00:44:34;;;;;;;19.95;17.90;;;;;;;;;;519538;28;1386;-74
2023/03/07 00:44:49;;;;;;;20.70;18.47;;;;;;;;;;517636;28;1192;-74
2023/03/07 00:45:05;;;;;;;20.25;18.13;;;;;;;;;;519467;28;1156;-73
2023/03/07 00:45:20;;;;;;;20.10;18.10;;;;;;;;;;518889;28;1218;-73
2023/03/07 00:45:35;;;;;;;20.33;18.30;;;;;;;;;;519860;28;1495;-73
2023/03/07 00:45:51;;;;;;;20.20;18.10;;;;;;;;;;517976;28;1191;-73
2023/03/07 00:46:07;;;;;;;20.08;17.98;;;;;;;;;;522588;28;1456;-73
2023/03/07 00:46:24;;;;;;;20.17;18.08;;;;;;;;;;521400;28;1916;-74
2023/03/07 00:46:39;;;;;;;20.75;18.65;;;;;;;;;;520446;28;1409;-74
2023/03/07 00:46:55;;;;;;;20.53;18.33;;;;;;;;;;521205;28;1429;-74
2023/03/07 00:47:10;;;;;;;19.85;17.77;;;;;;;;;;520568;28;1325;-73
2023/03/07 00:47:26;;;;;;;19.60;17.70;;;;;;;;;;521707;28;1434;-73
2023/03/07 00:47:41;;;;;;;19.77;17.77;;;;;;;;;;523239;28;1234;-74
2023/03/07 00:47:56;;;;;;;20.10;18.05;;;;;;;;;;520983;28;1309;-73
2023/03/07 00:48:12;;;;;;;20.03;18.03;;;;;;;;;;520988;28;1264;-73
2023/03/07 00:48:28;;;;;;;20.23;18.13;;;;;;;;;;519416;28;1187;-73
2023/03/07 00:48:44;;;;;;;20.52;18.42;;;;;;;;;;515768;28;1284;-73
2023/03/07 00:48:59;;;;;;;20.17;18.17;;;;;;;;;;519338;28;1493;-73
2023/03/07 00:49:14;;;;;;;19.73;17.73;;;;;;;;;;521571;28;1301;-74
2023/03/07 00:49:30;;;;;;;19.67;17.67;;;;;;;;;;521563;28;1244;-73
2023/03/07 00:49:45;;;;;;;19.90;17.90;;;;;;;;;;523735;28;1222;-73
2023/03/07 00:50:00;;;;;;;20.52;18.42;;;;;;;;;;521283;28;1346;-74
2023/03/07 00:50:15;;;;;;;20.73;18.63;;;;;;;;;;518506;28;1369;-73
2023/03/07 00:50:31;;;;;;;20.57;18.47;;;;;;;;;;518781;28;1330;-73
2023/03/07 00:50:46;;;;;;;19.92;17.92;;;;;;;;;;516097;28;1304;-74
2023/03/07 00:51:03;;;;;;;19.43;17.50;;;;;;;;;;519214;28;1280;-73
2023/03/07 00:51:19;;;;;;;19.75;17.75;;;;;;;;;;520456;28;1326;-74
2023/03/07 00:51:35;;;;;;;19.92;17.92;;;;;;;;;;518746;28;1286;-74
2023/03/07 00:51:50;;;;;;;19.98;17.98;;;;;;;;;;519593;28;1232;-74
2023/03/07 00:52:05;;;;;;;20.23;18.13;;;;;;;;;;523257;28;1586;-73
2023/03/07 00:52:21;;;;;;;20.03;17.93;;;;;;;;;;522038;28;1202;-74
2023/03/07 00:52:36;;;;;;;20.17;18.10;;;;;;;;;;519343;28;1468;-73
2023/03/07 00:52:51;;;;;;;20.50;18.40;;;;;;;;;;517017;28;1275;-74
2023/03/07 00:53:06;;;;;;;20.10;18.10;;;;;;;;;;516967;28;1450;-73
2023/03/07 00:53:23;;;;;;;19.45;17.45;;;;;;;;;;518715;28;1268;-74
2023/03/07 00:53:39;;;;;;;19.17;17.23;;;;;;;;;;521322;28;1409;-74
2023/03/07 00:53:55;;;;;;;19.40;17.50;;;;;;;;;;521728;28;1233;-74
2023/03/07 00:54:10;;;;;;;19.48;17.58;;;;;;;;;;521429;28;1514;-74
2023/03/07 00:54:25;;;;;;;19.50;17.57;;;;;;;;;;522637;28;1305;-75
2023/03/07 00:54:41;;;;;;;19.58;17.63;;;;;;;;;;524443;28;1141;-74
2023/03/07 00:54:56;;;;;;;19.67;17.67;;;;;;;;;;517959;28;1256;-74
2023/03/07 00:55:11;;;;;;;19.57;17.57;;;;;;;;;;517200;28;1188;-74
2023/03/07 00:55:27;;;;;;;19.65;17.65;;;;;;;;;;517578;28;1318;-74
2023/03/07 00:55:52;;;;;;;20.17;18.07;;;;;;;;;;518553;28;1205;-74
2023/03/07 00:56:22;;;;;;;19.80;17.75;;;;;;;;;;519248;28;1466;-74
2023/03/07 00:56:37;;;;;;;19.75;17.70;;;;;;;;;;518923;28;1435;-74
2023/03/07 00:56:53;;;;;;;19.52;17.52;;;;;;;;;;517721;28;1248;-74
2023/03/07 00:57:08;;;;;;;19.53;17.53;;;;;;;;;;516919;28;1344;-74
2023/03/07 00:57:23;;;;;;;19.13;17.23;;;;;;;;;;517494;28;1280;-73
2023/03/07 00:57:38;;;;;;;19.17;17.27;;;;;;;;;;514767;28;1241;-74
2023/03/07 00:57:54;;;;;;;19.50;17.50;;;;;;;;;;517485;28;1355;-74
2023/03/07 00:58:09;;;;;;;19.53;17.53;;;;;;;;;;519532;28;1373;-74
2023/03/07 00:58:27;;;;;;;19.80;17.80;;;;;;;;;;521260;28;1371;-74
2023/03/07 00:58:43;;;;;;;19.77;17.77;;;;;;;;;;521573;28;1550;-73
2023/03/07 00:58:58;;;;;;;19.35;17.38;;;;;;;;;;521609;28;1147;-74
2023/03/07 00:59:14;;;;;;;19.57;17.57;;;;;;;;;;519455;28;1386;-73
2023/03/07 00:59:29;;;;;;;19.47;17.57;;;;;;;;;;519833;28;1161;-73
2023/03/07 00:59:44;;;;;;;19.55;17.55;;;;;;;;;;520832;28;1225;-73
2023/03/07 01:00:00;;;;;;;19.47;17.47;;;;;;;;;;519336;28;1173;-73
2023/03/07 01:00:15;;;;;;;19.63;17.63;;;;;;;;;;516779;28;1128;-73
2023/03/07 01:00:31;;;;;;;20.05;17.95;;;;;;;;;;519339;28;1206;-74
2023/03/07 01:00:49;;;;;;;19.70;17.70;;;;;;;;;;521640;28;1335;-74
2023/03/07 01:01:06;;;;;;;19.65;17.70;;;;;;;;;;521991;28;1295;-73
2023/03/07 01:01:23;;;;;;;19.83;17.80;;;;;;;;;;518024;28;1160;-73
2023/03/07 01:01:40;;;;;;;20.20;18.15;;;;;;;;;;521303;28;1274;-73
2023/03/07 01:01:55;;;;;;;20.40;18.40;;;;;;;;;;521764;28;1687;-73
2023/03/07 01:02:10;;;;;;;20.42;18.40;;;;;;;;;;520774;28;1473;-74
2023/03/07 01:02:26;;;;;;;20.33;18.23;;;;;;;;;;521205;28;1154;-74
2023/03/07 01:02:41;;;;;;;19.50;17.50;;;;;;;;;;520932;28;1122;-73
2023/03/07 01:02:57;;;;;;;19.47;17.47;;;;;;;;;;519317;28;1243;-73
2023/03/07 01:03:12;;;;;;;19.93;17.93;;;;;;;;;;517267;28;1225;-73
2023/03/07 01:03:28;;;;;;;19.95;17.95;;;;;;;;;;518746;28;1456;-74
2023/03/07 01:03:43;;;;;;;19.60;17.60;;;;;;;;;;521676;28;1349;-73
2023/03/07 01:03:59;;;;;;;19.70;17.70;;;;;;;;;;518778;28;1250;-74
2023/03/07 01:04:14;;;;;;;20.27;18.27;;;;;;;;;;520461;28;1368;-73
2023/03/07 01:04:30;;;;;;;20.57;18.47;;;;;;;;;;518193;28;1338;-74
2023/03/07 01:04:45;;;;;;;20.15;18.08;;;;;;;;;;518426;28;1264;-74
2023/03/07 01:05:00;;;;;;;19.53;17.53;;;;;;;;;;518721;28;1345;-74
2023/03/07 01:05:16;;;;;;;19.20;17.30;;;;;;;;;;519374;28;1274;-74
2023/03/07 01:05:31;;;;;;;19.77;17.77;;;;;;;;;;519027;28;1377;-74
2023/03/07 01:05:46;;;;;;;19.80;17.80;;;;;;;;;;517105;28;1370;-74
2023/03/07 01:06:04;;;;;;;19.27;17.38;;;;;;;;;;520298;28;1219;-74
2023/03/07 01:06:22;;;;;;;19.20;17.30;;;;;;;;;;518671;28;1906;-74
2023/03/07 01:06:38;;;;;;;19.67;17.60;;;;;;;;;;517178;28;1300;-74
2023/03/07 01:06:53;;;;;;;19.43;17.43;;;;;;;;;;519797;28;1390;-73
2023/03/07 01:07:08;;;;;;;19.50;17.60;;;;;;;;;;516217;28;1498;-73
2023/03/07 01:07:24;;;;;;;19.73;17.80;;;;;;;;;;518307;28;1295;-73
2023/03/07 01:07:39;;;;;;;19.30;17.40;;;;;;;;;;521465;28;1321;-73
2023/03/07 01:07:54;;;;;;;19.27;17.30;;;;;;;;;;521688;28;1211;-73
2023/03/07 01:08:10;;;;;;;19.53;17.53;;;;;;;;;;519257;28;1236;-74
2023/03/07 01:08:25;;;;;;;19.63;17.63;;;;;;;;;;518207;28;1290;-74
2023/03/07 01:08:41;;;;;;;19.57;17.57;;;;;;;;;;517782;28;1203;-73
2023/03/07 01:08:58;;;;;;;19.60;17.60;;;;;;;;;;519266;28;1322;-73
2023/03/07 01:09:14;;;;;;;19.02;17.13;;;;;;;;;;519510;28;1457;-73
2023/03/07 01:09:29;;;;;;;18.83;16.93;;;;;;;;;;517457;28;1338;-73
2023/03/07 01:09:48;;;;;;;18.87;16.90;;;;;;;;;;515791;28;1322;-73
2023/03/07 01:10:03;;;;;;;19.00;17.00;;;;;;;;;;517467;28;1381;-73
2023/03/07 01:10:19;;;;;;;19.45;17.45;;;;;;;;;;518553;28;1224;-73
2023/03/07 01:10:34;;;;;;;19.77;17.70;;;;;;;;;;517410;28;1258;-73
2023/03/07 01:10:50;;;;;;;19.83;17.73;;;;;;;;;;516320;28;1265;-73
2023/03/07 01:11:05;;;;;;;19.00;17.10;;;;;;;;;;519261;28;1416;-74
2023/03/07 01:11:21;;;;;;;18.55;16.73;;;;;;;;;;518802;28;1295;-72
2023/03/07 01:11:36;;;;;;;19.10;17.20;;;;;;;;;;520806;28;1340;-73
2023/03/07 01:11:52;;;;;;;19.40;17.50;;;;;;;;;;521622;28;1262;-73
2023/03/07 01:12:07;;;;;;;19.47;17.57;;;;;;;;;;518419;28;1308;-73
2023/03/07 01:12:23;;;;;;;19.45;17.55;;;;;;;;;;519364;28;1195;-73
2023/03/07 01:12:38;;;;;;;19.27;17.37;;;;;;;;;;520498;28;1638;-74
2023/03/07 01:12:53;;;;;;;19.50;17.60;;;;;;;;;;520820;28;1294;-73
2023/03/07 01:13:09;;;;;;;19.67;17.75;;;;;;;;;;521587;28;1391;-73
2023/03/07 01:13:24;;;;;;;19.52;17.58;;;;;;;;;;517141;28;1443;-73
2023/03/07 01:13:40;;;;;;;19.03;17.13;;;;;;;;;;517773;28;1223;-72
2023/03/07 01:13:57;;;;;;;18.83;16.92;;;;;;;;;;519312;28;1252;-73
2023/03/07 01:14:12;;;;;;;19.00;17.10;;;;;;;;;;522830;28;1394;-74
2023/03/07 01:14:28;;;;;;;19.23;17.33;;;;;;;;;;519751;28;1242;-73
2023/03/07 01:14:43;;;;;;;19.10;17.20;;;;;;;;;;518882;28;1441;-73
2023/03/07 01:14:58;;;;;;;19.15;17.25;;;;;;;;;;521221;28;1369;-73
2023/03/07 01:15:14;;;;;;;19.20;17.30;;;;;;;;;;521442;28;1190;-73
2023/03/07 01:15:29;;;;;;;18.73;16.83;;;;;;;;;;519252;28;1461;-72
2023/03/07 01:15:44;;;;;;;18.27;16.48;;;;;;;;;;520199;28;1054;-76
2023/03/07 01:16:30;;;;;;;19.03;17.13;;;;;;;;;;519530;28;1188;-71
2023/03/07 01:16:45;;;;;;;18.95;17.05;;;;;;;;;;509098;28;1289;-72
2023/03/07 01:17:00;;;;;;;19.10;17.20;;;;;;;;;;509566;28;1357;-72
2023/03/07 01:17:16;;;;;;;19.20;17.30;;;;;;;;;;518155;28;1300;-72
2023/03/07 01:17:32;;;;;;;19.25;17.35;;;;;;;;;;520334;28;1570;-72
2023/03/07 01:17:47;;;;;;;18.85;17.05;;;;;;;;;;521473;28;1545;-73
2023/03/07 01:18:04;;;;;;;18.70;16.90;;;;;;;;;;519400;28;1214;-73
2023/03/07 01:18:20;;;;;;;18.85;16.95;;;;;;;;;;520211;28;1420;-73
2023/03/07 01:18:35;;;;;;;18.63;16.83;;;;;;;;;;520522;28;1210;-73
2023/03/07 01:18:53;;;;;;;18.97;17.07;;;;;;;;;;522073;28;1290;-75
2023/03/07 01:19:11;;;;;;;18.42;16.63;;;;;;;;;;522332;28;1458;-75
2023/03/07 01:19:26;;;;;;;18.60;16.70;;;;;;;;;;518144;28;1366;-75
2023/03/07 01:19:41;;;;;;;18.30;16.50;;;;;;;;;;516919;28;1440;-74
2023/03/07 01:19:57;;;;;;;18.08;16.27;;;;;;;;;;514824;28;1269;-75
2023/03/07 01:20:12;;;;;;;18.30;16.50;;;;;;;;;;514980;28;1351;-75
2023/03/07 01:20:31;;;;;;;18.33;16.53;;;;;;;;;;516952;28;1328;-76
2023/03/07 01:20:46;;;;;;;18.40;16.50;;;;;;;;;;518889;28;1236;-75
2023/03/07 01:21:12;;;;;;;18.40;16.50;;;;;;;;;;520671;28;1228;-75
2023/03/07 01:21:33;;;;;;;17.98;16.20;;;;;;;;;;520323;28;1313;-75
2023/03/07 01:21:49;;;;;;;17.60;15.90;;;;;;;;;;520359;28;1402;-74
2023/03/07 01:22:04;;;;;;;18.15;16.35;;;;;;;;;;521590;28;1443;-75
2023/03/07 01:22:19;;;;;;;18.65;16.85;;;;;;;;;;519577;28;1267;-75
2023/03/07 01:22:35;;;;;;;18.67;16.80;;;;;;;;;;515758;28;1255;-75
2023/03/07 01:22:50;;;;;;;18.73;16.83;;;;;;;;;;518824;28;1277;-75
2023/03/07 01:23:06;;;;;;;18.95;17.05;;;;;;;;;;520495;28;1165;-75
2023/03/07 01:23:21;;;;;;;18.53;16.73;;;;;;;;;;519649;28;1437;-75
2023/03/07 01:23:36;;;;;;;18.52;16.70;;;;;;;;;;517849;28;1449;-75
2023/03/07 01:23:52;;;;;;;18.50;16.70;;;;;;;;;;519287;28;1273;-75
2023/03/07 01:24:12;;;;;;;18.02;16.23;;;;;;;;;;519804;28;1574;-75
2023/03/07 01:24:27;;;;;;;18.05;16.25;;;;;;;;;;519156;28;1310;-75
2023/03/07 01:24:42;;;;;;;18.33;16.50;;;;;;;;;;519166;28;1160;-75
2023/03/07 01:24:58;;;;;;;18.50;16.60;;;;;;;;;;520522;28;1177;-75
2023/03/07 01:25:13;;;;;;;17.93;16.13;;;;;;;;;;522032;28;1267;-75
2023/03/07 01:25:29;;;;;;;17.80;16.05;;;;;;;;;;519153;28;1424;-75
2023/03/07 01:25:44;;;;;;;17.47;15.77;;;;;;;;;;520010;28;1522;-75
2023/03/07 01:25:59;;;;;;;17.33;15.63;;;;;;;;;;520879;28;1100;-75
2023/03/07 01:26:24;;;;;;;18.03;16.23;;;;;;;;;;521100;28;1258;-75
2023/03/07 01:26:40;;;;;;;17.52;15.77;;;;;;;;;;519181;28;1462;-75
2023/03/07 01:26:55;;;;;;;17.90;16.10;;;;;;;;;;518826;28;1511;-75
2023/03/07 01:27:10;;;;;;;17.65;15.85;;;;;;;;;;519480;28;1265;-75
2023/03/07 01:27:26;;;;;;;17.83;16.07;;;;;;;;;;517363;28;1177;-75
2023/03/07 01:27:41;;;;;;;17.83;16.13;;;;;;;;;;518651;28;1315;-76
2023/03/07 01:27:56;;;;;;;18.05;16.25;;;;;;;;;;519157;28;1385;-76
2023/03/07 01:28:13;;;;;;;18.13;16.33;;;;;;;;;;518849;28;1392;-75
2023/03/07 01:28:28;;;;;;;17.90;16.17;;;;;;;;;;518703;28;1090;-75
2023/03/07 01:28:45;;;;;;;18.33;16.53;;;;;;;;;;522992;28;1474;-76
2023/03/07 01:29:03;;;;;;;18.42;16.45;;;;;;;;;;520722;28;1571;-75
2023/03/07 01:29:18;;;;;;;17.77;15.93;;;;;;;;;;516715;28;1338;-75
2023/03/07 01:29:33;;;;;;;17.52;15.82;;;;;;;;;;514470;28;1392;-75
2023/03/07 01:29:49;;;;;;;17.73;16.00;;;;;;;;;;519234;28;1347;-76
2023/03/07 01:30:06;;;;;;;17.50;15.80;;;;;;;;;;520506;28;1327;-75
2023/03/07 01:30:24;;;;;;;17.67;15.93;;;;;;;;;;517190;28;1091;-75
2023/03/07 01:30:40;;;;;;;17.80;16.00;;;;;;;;;;521172;28;1326;-74
2023/03/07 01:30:57;;;;;;;18.02;16.25;;;;;;;;;;524191;28;1420;-75
2023/03/07 01:31:13;;;;;;;18.35;16.55;;;;;;;;;;522881;28;1484;-75
2023/03/07 01:31:29;;;;;;;18.30;16.50;;;;;;;;;;519327;28;1568;-75
2023/03/07 01:31:44;;;;;;;17.70;16.00;;;;;;;;;;517408;28;1422;-75
2023/03/07 01:31:59;;;;;;;17.30;15.60;;;;;;;;;;519436;28;1218;-76
2023/03/07 01:32:15;;;;;;;17.70;16.00;;;;;;;;;;521529;28;1391;-76
2023/03/07 01:32:30;;;;;;;18.47;16.67;;;;;;;;;;519617;28;1185;-75
2023/03/07 01:32:47;;;;;;;17.83;16.13;;;;;;;;;;521662;28;1300;-75
2023/03/07 01:33:03;;;;;;;17.50;15.80;;;;;;;;;;521339;28;1453;-75
2023/03/07 01:33:18;;;;;;;17.33;15.63;;;;;;;;;;522593;28;1366;-75
2023/03/07 01:33:33;;;;;;;17.10;15.50;;;;;;;;;;517255;28;1204;-76
2023/03/07 01:33:51;;;;;;;17.30;15.60;;;;;;;;;;519567;28;1213;-75
2023/03/07 01:34:06;;;;;;;17.38;15.68;;;;;;;;;;519131;28;1407;-76
2023/03/07 01:34:22;;;;;;;17.40;15.70;;;;;;;;;;522030;28;1376;-74
2023/03/07 01:34:37;;;;;;;17.30;15.60;;;;;;;;;;523391;28;1399;-73
2023/03/07 01:34:52;;;;;;;16.90;15.30;;;;;;;;;;523785;28;1282;-73
2023/03/07 01:35:08;;;;;;;16.75;15.15;;;;;;;;;;523306;28;1413;-73
2023/03/07 01:35:24;;;;;;;17.17;15.47;;;;;;;;;;520168;28;1228;-74
2023/03/07 01:35:39;;;;;;;17.50;15.80;;;;;;;;;;518751;28;1501;-74
2023/03/07 01:35:55;;;;;;;17.70;16.00;;;;;;;;;;517295;28;1379;-74
2023/03/07 01:36:29;;;;;;;17.87;16.07;;;;;;;;;;519437;28;1390;-74
2023/03/07 01:36:44;;;;;;;18.42;16.60;;;;;;;;;;516973;28;1429;-73